Time;durP1;ratioP1;P1;durP2;ratioP2;P2;SDS_P1;SDS_P2;PMS_P1;PMS_P2;Temp;Humidity;BMP_temperature;BMP_pressure;BME280_temperature;BME280_humidity;BME280_pressure;Samples;Min_cycle;Max_cycle;Signal;HPM_P1;HPM_P2
2023/01/14 00:01:24;;;;;;;2.9;2.2;;;;;;;3.98;98.59375;942.4363;;;;
2023/01/14 00:03:56;;;;;;;3;2.2;;;;;;;3.96;99.20605;942.4274;;;;
2023/01/14 00:06:22;;;;;;;3;2.4;;;;;;;4.01;98.94824;942.3737;;;;
2023/01/14 00:08:52;;;;;;;4.1;3.4;;;;;;;4.05;99.01367;942.3541;;;;
2023/01/14 00:11:18;;;;;;;4.4;3.4;;;;;;;4.05;99.35938;942.2798;;;;
2023/01/14 00:14:07;;;;;;;4.6;3.3;;;;;;;3.9;100;942.1872;;;;
2023/01/14 00:16:55;;;;;;;2.6;2.4;;;;;;;3.83;100;942.2478;;;;
2023/01/14 00:19:44;;;;;;;3;2.5;;;;;;;3.97;100;942.2466;;;;
2023/01/14 00:22:17;;;;;;;3.3;2.8;;;;;;;4.1;99.14746;942.2378;;;;
2023/01/14 00:24:45;;;;;;;3.2;2.8;;;;;;;4.2;98.74316;942.2985;;;;
2023/01/14 00:27:16;;;;;;;5.3;3.5;;;;;;;4.18;98.69629;942.2491;;;;
2023/01/14 00:29:41;;;;;;;4;3.3;;;;;;;4.04;99.10059;942.2378;;;;
2023/01/14 00:32:09;;;;;;;4.2;3.2;;;;;;;3.99;99.89844;942.2924;;;;
2023/01/14 00:34:41;;;;;;;3.7;3.1;;;;;;;3.92;99.79297;942.2794;;;;
2023/01/14 00:37:15;;;;;;;3.4;2.8;;;;;;;4.03;99.59375;942.1973;;;;
2023/01/14 00:39:40;;;;;;;3.2;2.7;;;;;;;4.08;98.51563;942.1647;;;;
2023/01/14 00:42:05;;;;;;;3.5;2.4;;;;;;;4.07;98.02734;942.2059;;;;
2023/01/14 00:44:32;;;;;;;3.2;2.7;;;;;;;4.12;97.4082;942.2511;;;;
2023/01/14 00:46:57;;;;;;;3;2.5;;;;;;;4.12;96.55371;942.1622;;;;
2023/01/14 00:49:25;;;;;;;2.3;2.1;;;;;;;4.06;95.71973;942.1931;;;;
2023/01/14 00:51:50;;;;;;;2.5;2.1;;;;;;;3.99;95.90625;942.1535;;;;
2023/01/14 00:54:15;;;;;;;1.9;1.8;;;;;;;3.93;95.90332;942.1936;;;;
2023/01/14 00:56:41;;;;;;;1.5;1.4;;;;;;;3.81;95.97754;942.1533;;;;
2023/01/14 00:59:06;;;;;;;3.1;2.4;;;;;;;3.76;95.78809;942.2202;;;;
2023/01/14 01:01:32;;;;;;;2.2;2;;;;;;;3.79;95.58008;942.2658;;;;
2023/01/14 01:04:19;;;;;;;1.9;1.6;;;;;;;3.69;95.44531;942.2169;;;;
2023/01/14 01:06:50;;;;;;;2.2;2;;;;;;;3.77;95.64551;942.1666;;;;
2023/01/14 01:09:15;;;;;;;2.4;1.8;;;;;;;3.68;95.99414;942.1649;;;;
2023/01/14 01:11:45;;;;;;;3.2;2.4;;;;;;;3.67;95.76758;942.134;;;;
2023/01/14 01:14:09;;;;;;;4;2.5;;;;;;;3.68;95.55566;942.2232;;;;
2023/01/14 01:16:37;;;;;;;2.7;2.3;;;;;;;3.56;95.79688;942.1715;;;;
2023/01/14 01:19:02;;;;;;;3.7;2.5;;;;;;;3.54;95.93945;942.0762;;;;
2023/01/14 01:21:29;;;;;;;3;2;;;;;;;3.33;96.96094;942.1705;;;;
2023/01/14 01:23:54;;;;;;;1.5;1.4;;;;;;;3.4;97.3457;942.1434;;;;
2023/01/14 01:27:11;;;;;;;1.9;1.6;;;;;;;3.26;97.64063;942.1414;;;;
2023/01/14 01:29:39;;;;;;;1.6;1.4;;;;;;;3.13;98.47559;942.2867;;;;
2023/01/14 01:32:04;;;;;;;1.4;1.3;;;;;;;3.19;98.65625;942.253;;;;
2023/01/14 01:34:34;;;;;;;2;1.3;;;;;;;3.29;98.16113;942.2275;;;;
2023/01/14 01:37:00;;;;;;;1.9;1.3;;;;;;;3.3;98.03027;942.2153;;;;
2023/01/14 01:42:34;;;;;;;1;1;;;;;;;3.27;97.81152;942.3692;;;;
2023/01/14 01:45:00;;;;;;;1.1;1;;;;;;;3.34;97.69336;942.3857;;;;
2023/01/14 01:47:29;;;;;;;1.4;1.2;;;;;;;3.36;97.86523;942.4238;;;;
2023/01/14 01:49:54;;;;;;;3.4;2.3;;;;;;;3.25;98.09668;942.4501;;;;
2023/01/14 01:52:20;;;;;;;2.8;1.6;;;;;;;3.27;98.53906;942.3934;;;;
2023/01/14 01:54:47;;;;;;;2.6;0.8;;;;;;;3.23;98.70996;942.4117;;;;
2023/01/14 01:57:12;;;;;;;1.1;0.8;;;;;;;3.37;98.66504;942.4515;;;;
2023/01/14 01:59:39;;;;;;;1;0.9;;;;;;;3.5;98.06543;942.4402;;;;
2023/01/14 02:03:04;;;;;;;0.8;0.8;;;;;;;3.53;97.63379;942.4647;;;;
2023/01/14 02:05:29;;;;;;;1.1;1;;;;;;;3.32;97.84375;942.4476;;;;
2023/01/14 02:07:59;;;;;;;1;0.9;;;;;;;3;99.3418;942.3809;;;;
2023/01/14 02:10:24;;;;;;;2.3;1;;;;;;;3.03;100;942.4537;;;;
2023/01/14 02:12:51;;;;;;;1.6;1.2;;;;;;;3.23;100;942.4171;;;;
2023/01/14 02:15:17;;;;;;;2.2;1.2;;;;;;;3.33;100;942.5285;;;;
2023/01/14 02:17:42;;;;;;;1.7;1;;;;;;;3.28;99.79785;942.494;;;;
2023/01/14 02:20:07;;;;;;;1.9;1.3;;;;;;;3.29;100;942.5313;;;;
2023/01/14 02:22:36;;;;;;;1.9;1.3;;;;;;;3.48;99.41992;942.5502;;;;
2023/01/14 02:25:01;;;;;;;1.8;1.4;;;;;;;3.64;98.66016;942.5517;;;;
2023/01/14 02:27:27;;;;;;;1.3;1.1;;;;;;;3.69;97.64844;942.6434;;;;
2023/01/14 02:29:52;;;;;;;1.4;1;;;;;;;3.71;96.85449;942.6713;;;;
2023/01/14 02:32:18;;;;;;;1.4;1.2;;;;;;;3.66;96.83301;942.7227;;;;
2023/01/14 02:34:43;;;;;;;1.3;1.2;;;;;;;3.59;97.3125;942.7014;;;;
2023/01/14 02:37:08;;;;;;;2.5;1.1;;;;;;;3.67;97.34082;942.652;;;;
2023/01/14 02:39:33;;;;;;;1.7;1.1;;;;;;;3.66;97.17969;942.6415;;;;
2023/01/14 02:44:55;;;;;;;1.6;1.3;;;;;;;3.57;97.23926;942.6492;;;;
2023/01/14 02:47:20;;;;;;;1.8;1.2;;;;;;;3.55;96.9541;942.5524;;;;
2023/01/14 02:49:46;;;;;;;5.1;3.1;;;;;;;3.42;97.59961;942.5895;;;;
2023/01/14 02:52:11;;;;;;;1.8;1.4;;;;;;;3.37;98.38379;942.5256;;;;
2023/01/14 02:54:39;;;;;;;2.3;1.4;;;;;;;3.43;97.9043;942.5143;;;;
2023/01/14 02:57:04;;;;;;;1.9;1.2;;;;;;;3.46;97.06641;942.4122;;;;
2023/01/14 02:59:35;;;;;;;1.3;1;;;;;;;3.41;97.43848;942.3733;;;;
2023/01/14 03:02:02;;;;;;;0.8;0.8;;;;;;;3.46;97.16992;942.3582;;;;
2023/01/14 03:04:27;;;;;;;1;0.9;;;;;;;3.31;97.89551;942.3166;;;;
2023/01/14 03:06:51;;;;;;;0.6;0.6;;;;;;;3.31;98.01074;942.4009;;;;
2023/01/14 03:09:16;;;;;;;0.9;0.6;;;;;;;3.14;98.52246;942.4619;;;;
2023/01/14 03:11:45;;;;;;;2.2;0.6;;;;;;;3.11;99.1875;942.5329;;;;
2023/01/14 03:17:00;;;;;;;1.4;0.9;;;;;;;3.22;98.70801;942.478;;;;
2023/01/14 03:19:26;;;;;;;0.9;0.6;;;;;;;3.27;98.43945;942.4056;;;;
2023/01/14 03:21:51;;;;;;;0.6;0.6;;;;;;;3.31;98.16699;942.4197;;;;
2023/01/14 03:24:18;;;;;;;0.8;0.6;;;;;;;3.34;97.99609;942.3826;;;;
2023/01/14 03:26:43;;;;;;;1;0.6;;;;;;;3.4;97.67188;942.4196;;;;
2023/01/14 03:29:08;;;;;;;0.9;0.6;;;;;;;3.26;97.96387;942.4387;;;;
2023/01/14 03:31:33;;;;;;;0.3;0.3;;;;;;;3.3;98.24414;942.4289;;;;
2023/01/14 03:33:58;;;;;;;0.5;0.5;;;;;;;3.34;97.43457;942.3441;;;;
2023/01/14 03:36:23;;;;;;;0.5;0.5;;;;;;;3.27;97.32617;942.2833;;;;
2023/01/14 03:38:49;;;;;;;1.4;0.7;;;;;;;3.18;97.82227;942.3485;;;;
2023/01/14 03:42:17;;;;;;;0.6;0.6;;;;;;;3.24;97.5;942.3427;;;;
2023/01/14 03:43:39;;;;;;;1.4;0.6;;;;;;;3.3;96.86328;942.3376;;;;
2023/01/14 03:46:04;;;;;;;1.3;0.9;;;;;;;3.35;96.48047;942.3765;;;;
2023/01/14 03:48:32;;;;;;;0.7;0.7;;;;;;;3.38;95.89355;942.4142;;;;
2023/01/14 03:50:57;;;;;;;1.5;0.7;;;;;;;3.38;96.12891;942.3126;;;;
2023/01/14 03:53:22;;;;;;;0.8;0.8;;;;;;;3.3;97.06543;942.3208;;;;
2023/01/14 03:55:47;;;;;;;2.1;0.8;;;;;;;3.29;97.19824;942.2772;;;;
2023/01/14 03:58:12;;;;;;;1.7;1;;;;;;;3;97.84961;942.3102;;;;
2023/01/14 04:02:34;;;;;;;2.2;0.6;;;;;;;2.93;98.76172;942.3184;;;;
2023/01/14 04:04:59;;;;;;;0.9;0.7;;;;;;;2.76;99.2959;942.195;;;;
2023/01/14 04:07:25;;;;;;;0.6;0.6;;;;;;;2.8;99.87891;942.209;;;;
2023/01/14 04:09:50;;;;;;;0.6;0.5;;;;;;;2.94;99.48438;942.1866;;;;
2023/01/14 04:12:20;;;;;;;1.1;0.5;;;;;;;2.97;99.41406;942.1749;;;;
2023/01/14 04:17:10;;;;;;;1.4;0.6;;;;;;;3.13;99.14746;942.259;;;;
2023/01/14 04:19:36;;;;;;;1;0.6;;;;;;;3.08;98.6875;942.272;;;;
2023/01/14 04:22:01;;;;;;;3.6;1.5;;;;;;;3.01;98.73828;942.2216;;;;
2023/01/14 04:24:29;;;;;;;3.8;1.8;;;;;;;3.1;98.76855;942.1852;;;;
2023/01/14 04:26:54;;;;;;;2.3;1.7;;;;;;;3.17;98.09082;942.2347;;;;
2023/01/14 04:29:22;;;;;;;2.2;1.5;;;;;;;3.22;97.25977;942.197;;;;
2023/01/14 04:31:47;;;;;;;2;1.3;;;;;;;3.25;97.20996;942.259;;;;
2023/01/14 04:34:15;;;;;;;1.2;0.6;;;;;;;3.12;97.33789;942.291;;;;
2023/01/14 04:36:39;;;;;;;1.5;0.7;;;;;;;2.88;98.04492;942.3618;;;;
2023/01/14 04:39:07;;;;;;;1;0.7;;;;;;;2.78;99.34473;942.3387;;;;
2023/01/14 04:43:59;;;;;;;2.4;2.1;;;;;;;2.59;100;942.3106;;;;
2023/01/14 04:46:22;;;;;;;1.9;1.8;;;;;;;2.69;100;942.2302;;;;
2023/01/14 04:48:52;;;;;;;1.9;1.3;;;;;;;2.69;100;942.1769;;;;
2023/01/14 04:51:17;;;;;;;1.6;1.2;;;;;;;2.75;100;942.2576;;;;
2023/01/14 04:53:48;;;;;;;1.8;1.2;;;;;;;2.88;100;942.2997;;;;
2023/01/14 04:56:16;;;;;;;1.2;1.1;;;;;;;2.95;99.84473;942.369;;;;
2023/01/14 04:58:41;;;;;;;2.6;1.2;;;;;;;2.96;99.23047;942.3887;;;;
2023/01/14 05:01:40;;;;;;;1.1;1;;;;;;;3.01;98.64648;942.3173;;;;
2023/01/14 05:04:07;;;;;;;2.2;1;;;;;;;2.86;98.87109;942.3442;;;;
2023/01/14 05:06:32;;;;;;;1.4;1;;;;;;;2.88;99.06543;942.3908;;;;
2023/01/14 05:08:59;;;;;;;1.4;1.1;;;;;;;3;98.56543;942.1797;;;;
2023/01/14 05:11:24;;;;;;;2.2;1.1;;;;;;;3.01;98.07813;942.3044;;;;
2023/01/14 05:13:49;;;;;;;1.7;1;;;;;;;2.97;98.23438;942.3499;;;;
2023/01/14 05:16:16;;;;;;;1.4;1;;;;;;;2.89;98.31836;942.2662;;;;
2023/01/14 05:18:40;;;;;;;1.1;0.9;;;;;;;2.81;98.59082;942.2723;;;;
2023/01/14 05:21:05;;;;;;;1;0.9;;;;;;;2.7;99.23633;942.2158;;;;
2023/01/14 05:23:30;;;;;;;1.7;1.1;;;;;;;2.7;99.27051;942.2715;;;;
2023/01/14 05:25:56;;;;;;;1.6;0.8;;;;;;;2.63;99.84766;942.218;;;;
2023/01/14 05:28:25;;;;;;;1.9;0.8;;;;;;;2.66;99.70996;942.2086;;;;
2023/01/14 05:30:50;;;;;;;1.3;0.9;;;;;;;2.66;99.55273;942.2644;;;;
2023/01/14 05:33:18;;;;;;;0.8;0.8;;;;;;;2.54;99.6582;942.205;;;;
2023/01/14 05:35:43;;;;;;;0.6;0.6;;;;;;;2.58;99.55664;942.1701;;;;
2023/01/14 05:38:15;;;;;;;1;0.8;;;;;;;2.61;99.41895;942.0956;;;;
2023/01/14 05:40:46;;;;;;;1.4;0.8;;;;;;;2.71;99.4873;942.1355;;;;
2023/01/14 05:45:49;;;;;;;1.6;0.8;;;;;;;2.75;98.23047;942.0909;;;;
2023/01/14 05:48:06;;;;;;;2;0.7;;;;;;;2.74;97.89063;942.0355;;;;
2023/01/14 05:50:31;;;;;;;1.5;1;;;;;;;2.8;97.78125;942.0159;;;;
2023/01/14 05:53:00;;;;;;;1.7;1;;;;;;;2.8;97.67871;941.9961;;;;
2023/01/14 05:55:30;;;;;;;1.6;1.1;;;;;;;2.73;97.56348;941.9901;;;;
2023/01/14 05:57:55;;;;;;;1.8;1.2;;;;;;;2.6;97.85742;941.9673;;;;
2023/01/14 06:07:41;;;;;;;2.2;1.3;;;;;;;2.55;98.19434;941.7828;;;;
2023/01/14 06:10:06;;;;;;;5.3;1.9;;;;;;;2.55;97.44336;941.7263;;;;
2023/01/14 06:12:57;;;;;;;1.7;0.7;;;;;;;2.46;97.79199;941.7433;;;;
2023/01/14 06:14:57;;;;;;;2.5;1.4;;;;;;;2.26;98.78613;941.6372;;;;
2023/01/14 06:17:27;;;;;;;4.3;2.6;;;;;;;2.22;99.32813;941.5878;;;;
2023/01/14 06:19:48;;;;;;;5.1;3.3;;;;;;;2.14;99.54395;941.5878;;;;
2023/01/14 06:22:14;;;;;;;5.3;3.7;;;;;;;2.1;100;941.6463;;;;
2023/01/14 06:24:39;;;;;;;6.3;3.6;;;;;;;2.1;100;941.6209;;;;
2023/01/14 06:27:07;;;;;;;6.4;3.9;;;;;;;2.15;100;941.665;;;;
2023/01/14 06:29:32;;;;;;;6.2;3.9;;;;;;;2.22;99.42676;941.6944;;;;
2023/01/14 06:31:59;;;;;;;5.1;3.3;;;;;;;2.25;98.65137;941.7196;;;;
2023/01/14 06:34:24;;;;;;;7.8;5.4;;;;;;;2.25;98.64063;941.8092;;;;
2023/01/14 06:36:52;;;;;;;4.4;3.4;;;;;;;2.04;98.77148;941.9105;;;;
2023/01/14 06:39:18;;;;;;;7;3.7;;;;;;;2.01;99.04199;941.8934;;;;
2023/01/14 06:41:46;;;;;;;4;3.1;;;;;;;1.93;99.75977;941.8711;;;;
2023/01/14 06:44:11;;;;;;;7.6;4.4;;;;;;;1.92;100;941.8033;;;;
2023/01/14 06:46:37;;;;;;;5.6;4.2;;;;;;;1.83;100;941.685;;;;
2023/01/14 06:49:03;;;;;;;4.8;3.2;;;;;;;1.81;100;941.6765;;;;
2023/01/14 06:51:32;;;;;;;10.5;6.3;;;;;;;1.82;100;941.5856;;;;
2023/01/14 06:53:56;;;;;;;10;5.8;;;;;;;1.89;100;941.6376;;;;
2023/01/14 06:56:24;;;;;;;4.2;2.9;;;;;;;1.94;100;941.5905;;;;
2023/01/14 06:58:49;;;;;;;6.4;3.2;;;;;;;1.98;99.37012;941.5619;;;;
2023/01/14 07:01:19;;;;;;;3.6;2.5;;;;;;;2.02;98.58789;941.6418;;;;
2023/01/14 07:03:49;;;;;;;3.8;1.9;;;;;;;2.04;98.52246;941.6259;;;;
2023/01/14 07:06:14;;;;;;;5.7;4;;;;;;;2.01;98.59473;941.6531;;;;
2023/01/14 07:08:42;;;;;;;5.2;3.7;;;;;;;2;98.73828;941.6153;;;;
2023/01/14 07:11:08;;;;;;;8.5;5;;;;;;;1.9;99.4873;941.6498;;;;
2023/01/14 07:13:33;;;;;;;8.8;5.5;;;;;;;1.79;100;941.7594;;;;
2023/01/14 07:16:05;;;;;;;10.7;6.9;;;;;;;1.79;100;941.7418;;;;
2023/01/14 07:18:31;;;;;;;8.9;5.8;;;;;;;1.77;100;941.6765;;;;
2023/01/14 07:20:57;;;;;;;9.6;5;;;;;;;1.8;100;941.7153;;;;
2023/01/14 07:23:26;;;;;;;6.5;4.6;;;;;;;1.78;100;941.6873;;;;
2023/01/14 07:25:55;;;;;;;8.6;4.9;;;;;;;1.81;100;941.6758;;;;
2023/01/14 07:28:16;;;;;;;5.8;4.4;;;;;;;1.88;100;941.5594;;;;
2023/01/14 07:30:44;;;;;;;6.2;4.2;;;;;;;1.86;100;941.6111;;;;
2023/01/14 07:33:09;;;;;;;4.9;3.8;;;;;;;1.87;100;941.6028;;;;
2023/01/14 07:35:36;;;;;;;4;3;;;;;;;1.86;99.9375;941.5705;;;;
2023/01/14 07:38:01;;;;;;;5.1;3.5;;;;;;;1.86;99.94629;941.5787;;;;
2023/01/14 07:40:29;;;;;;;4;2.8;;;;;;;1.9;99.67773;941.639;;;;
2023/01/14 07:42:59;;;;;;;3.6;2;;;;;;;1.96;99.74805;941.6145;;;;
2023/01/14 07:45:24;;;;;;;2.1;1.5;;;;;;;2.04;99.52148;941.5941;;;;
2023/01/14 07:47:51;;;;;;;2.2;2;;;;;;;2.37;99.70703;941.6225;;;;
2023/01/14 07:50:16;;;;;;;6.3;4;;;;;;;3.17;100;941.5833;;;;
2023/01/14 07:52:44;;;;;;;5.4;4.9;;;;;;;3.71;95.27051;941.5837;;;;
2023/01/14 07:55:09;;;;;;;8.4;7.4;;;;;;;4.26;92.04199;941.4975;;;;
2023/01/14 07:57:37;;;;;;;8;6;;;;;;;3.94;88.29395;941.4692;;;;
2023/01/14 08:00:02;;;;;;;7.1;5.3;;;;;;;4.08;87.71582;941.5247;;;;
2023/01/14 08:02:29;;;;;;;7.5;4.6;;;;;;;3.84;88.29688;941.5552;;;;
2023/01/14 08:04:54;;;;;;;7.8;5.3;;;;;;;4.53;86.51465;941.548;;;;
2023/01/14 08:07:20;;;;;;;7.2;4.4;;;;;;;5.44;83.84473;941.535;;;;
2023/01/14 08:09:45;;;;;;;6.3;3.8;;;;;;;5.56;79.69141;941.5239;;;;
2023/01/14 08:12:13;;;;;;;7;4.9;;;;;;;5.31;80.66113;941.4752;;;;
2023/01/14 08:14:38;;;;;;;7.3;4.6;;;;;;;5.55;79.57715;941.4952;;;;
2023/01/14 08:17:10;;;;;;;6.3;4.4;;;;;;;6.02;78.47852;941.3939;;;;
2023/01/14 08:19:38;;;;;;;6.2;4.3;;;;;;;6.01;77.49512;941.408;;;;
2023/01/14 08:22:03;;;;;;;7.4;4.9;;;;;;;5.9;78.81836;941.3644;;;;
2023/01/14 08:24:28;;;;;;;4.1;3.2;;;;;;;6.19;77.32422;941.3653;;;;
2023/01/14 08:26:54;;;;;;;4.2;3.4;;;;;;;7.35;76.17188;941.3753;;;;
2023/01/14 08:29:19;;;;;;;6.1;4.3;;;;;;;6.72;73.75098;941.3762;;;;
2023/01/14 08:31:47;;;;;;;6.5;4.5;;;;;;;7.46;73.2207;941.3611;;;;
2023/01/14 08:34:13;;;;;;;6.9;4.5;;;;;;;7.54;71.09277;941.1897;;;;
2023/01/14 08:36:40;;;;;;;5;3.9;;;;;;;7.88;70.81934;941.3199;;;;
2023/01/14 08:39:05;;;;;;;11.4;5.9;;;;;;;8.32;68.14355;941.1609;;;;
2023/01/14 08:41:34;;;;;;;12.8;7.9;;;;;;;8.38;67.94727;941.242;;;;
2023/01/14 08:43:59;;;;;;;6.8;5.2;;;;;;;8.83;66.4043;941.2676;;;;
2023/01/14 08:46:27;;;;;;;6.1;4.5;;;;;;;9.73;63.60449;941.1945;;;;
2023/01/14 08:48:52;;;;;;;5.4;4.3;;;;;;;9.77;62.94727;941.1037;;;;
2023/01/14 08:51:18;;;;;;;6.2;4;;;;;;;9.04;64.37793;941.0776;;;;
2023/01/14 08:53:43;;;;;;;4.3;3.6;;;;;;;8.88;64.83105;941.0385;;;;
2023/01/14 08:56:15;;;;;;;4.3;3;;;;;;;7.45;68.7998;940.9783;;;;
2023/01/14 08:58:42;;;;;;;2.4;1.8;;;;;;;6;73.07422;940.8642;;;;
2023/01/14 09:01:07;;;;;;;3.7;2.5;;;;;;;5.72;76.80957;940.7325;;;;
2023/01/14 09:03:39;;;;;;;2.7;2.3;;;;;;;4.72;80.62793;940.6986;;;;
2023/01/14 09:06:04;;;;;;;3.6;2.2;;;;;;;4.47;83.55371;940.6508;;;;
2023/01/14 09:18:31;;;;;;;3.3;2.3;;;;;;;4.32;86.94434;940.5073;;;;
2023/01/14 09:21:01;;;;;;;3.5;2.3;;;;;;;4.24;86.06152;940.5673;;;;
2023/01/14 09:23:26;;;;;;;4.8;2.4;;;;;;;4.3;87.1416;940.5701;;;;
2023/01/14 09:25:51;;;;;;;3;2;;;;;;;4.44;88.69141;940.5818;;;;
2023/01/14 09:28:20;;;;;;;2;1.6;;;;;;;4.61;87.80371;940.488;;;;
2023/01/14 09:30:46;;;;;;;1.8;1.3;;;;;;;4.65;85.27637;940.4871;;;;
2023/01/14 09:33:13;;;;;;;2.4;1.9;;;;;;;4.85;86.0957;940.4966;;;;
2023/01/14 09:35:38;;;;;;;2.4;2;;;;;;;4.87;85.70508;940.4673;;;;
2023/01/14 09:38:03;;;;;;;3;2.4;;;;;;;4.92;86.98926;940.4557;;;;
2023/01/14 09:40:30;;;;;;;3.3;2.5;;;;;;;5.03;86.25586;940.3723;;;;
2023/01/14 09:42:57;;;;;;;3.7;2;;;;;;;5.21;85.38867;940.3397;;;;
2023/01/14 09:45:21;;;;;;;3.7;2;;;;;;;5.3;84.17871;940.2787;;;;
2023/01/14 09:47:48;;;;;;;1.8;1.4;;;;;;;5.14;81.0459;940.1746;;;;
2023/01/14 09:50:14;;;;;;;2.4;1.5;;;;;;;5.2;81.05859;940.2089;;;;
2023/01/14 09:53:27;;;;;;;2.7;1.8;;;;;;;5.25;78.16797;940.2051;;;;
2023/01/14 09:55:52;;;;;;;1.8;1.1;;;;;;;5.26;77.5498;940.2095;;;;
2023/01/14 09:58:19;;;;;;;2.2;1.1;;;;;;;5.42;78.53613;940.1152;;;;
2023/01/14 10:00:46;;;;;;;0.7;0.6;;;;;;;5.63;78.3623;940.0969;;;;
2023/01/14 10:03:15;;;;;;;1.7;1;;;;;;;5.72;78.48047;940.0522;;;;
2023/01/14 10:05:40;;;;;;;2.1;0.9;;;;;;;5.61;78.1084;940.0685;;;;
2023/01/14 10:08:08;;;;;;;1;0.6;;;;;;;5.41;78.08496;940.014;;;;
2023/01/14 10:10:35;;;;;;;1;0.9;;;;;;;5.46;80.03613;939.9833;;;;
2023/01/14 10:13:01;;;;;;;0.7;0.6;;;;;;;5.7;77.33496;939.9946;;;;
2023/01/14 10:15:32;;;;;;;1.7;0.8;;;;;;;6.09;78.08496;939.9235;;;;
2023/01/14 10:17:57;;;;;;;1;0.9;;;;;;;6.46;76.68164;939.8663;;;;
2023/01/14 10:20:22;;;;;;;1.8;1;;;;;;;6.67;76.86621;939.7844;;;;
2023/01/14 10:22:47;;;;;;;0.7;0.6;;;;;;;6.84;73.68262;939.6238;;;;
2023/01/14 10:25:12;;;;;;;1;0.5;;;;;;;6.84;70.55762;939.5667;;;;
2023/01/14 10:27:37;;;;;;;0.7;0.5;;;;;;;6.78;69.49512;939.4683;;;;
2023/01/14 10:30:03;;;;;;;2.2;1.2;;;;;;;7.03;73.27148;939.5027;;;;
2023/01/14 10:32:30;;;;;;;0.9;0.9;;;;;;;7.17;70.51074;939.3986;;;;
2023/01/14 10:34:55;;;;;;;2.7;1.5;;;;;;;7.35;71.29883;939.3531;;;;
2023/01/14 10:37:20;;;;;;;1.5;0.9;;;;;;;7.6;70.37793;939.226;;;;
2023/01/14 10:39:50;;;;;;;1.4;1.1;;;;;;;7.38;66.38477;939.0932;;;;
2023/01/14 10:42:14;;;;;;;1.1;1;;;;;;;7.46;68.05273;939.0019;;;;
2023/01/14 10:44:43;;;;;;;2.2;0.9;;;;;;;7.58;67.24414;938.9902;;;;
2023/01/14 10:47:08;;;;;;;1;0.8;;;;;;;7.62;66.45703;938.8781;;;;
2023/01/14 10:49:34;;;;;;;1.5;1;;;;;;;7.56;67.35254;938.8621;;;;
2023/01/14 10:51:59;;;;;;;1.4;0.9;;;;;;;7.24;67.42969;938.9103;;;;
2023/01/14 10:54:27;;;;;;;1;0.9;;;;;;;7.23;68.37695;938.8989;;;;
2023/01/14 10:56:51;;;;;;;1.4;1;;;;;;;7.54;68.83691;938.8491;;;;
2023/01/14 10:59:19;;;;;;;2.2;0.8;;;;;;;7.53;65.48926;938.829;;;;
2023/01/14 11:01:44;;;;;;;1.3;0.9;;;;;;;7.6;67.38281;938.8455;;;;
2023/01/14 11:04:09;;;;;;;1.2;0.9;;;;;;;7.59;68.61719;938.6758;;;;
2023/01/14 11:06:34;;;;;;;1.6;0.9;;;;;;;7.53;70.5459;938.6555;;;;
2023/01/14 11:09:00;;;;;;;1.7;1.1;;;;;;;7.74;72.24902;938.6151;;;;
2023/01/14 11:11:25;;;;;;;1.9;1.3;;;;;;;7.78;70.00879;938.6064;;;;
2023/01/14 11:13:53;;;;;;;2;1.3;;;;;;;7.85;71.22363;938.5312;;;;
2023/01/14 11:16:17;;;;;;;2.3;1.2;;;;;;;7.89;73.87305;938.5636;;;;
2023/01/14 11:18:44;;;;;;;1.3;1.1;;;;;;;7.9;73.43262;938.5575;;;;
2023/01/14 11:21:09;;;;;;;1.7;1.2;;;;;;;7.62;73.29395;938.4715;;;;
2023/01/14 11:23:38;;;;;;;2.4;1.1;;;;;;;7.43;73.35254;938.3349;;;;
2023/01/14 11:26:04;;;;;;;2.9;1.4;;;;;;;7.52;73.24316;938.2464;;;;
2023/01/14 11:28:31;;;;;;;4.8;2.5;;;;;;;7.15;74.50488;938.2823;;;;
2023/01/14 11:30:56;;;;;;;4.4;2.7;;;;;;;7.08;74.78711;938.17;;;;
2023/01/14 11:33:22;;;;;;;2.8;2.2;;;;;;;6.94;74.44629;938.1151;;;;
2023/01/14 11:35:47;;;;;;;2.5;2;;;;;;;6.72;73.9209;938.0718;;;;
2023/01/14 11:38:12;;;;;;;3.7;2.4;;;;;;;6.81;76.09961;938.0053;;;;
2023/01/14 11:43:05;;;;;;;2.2;1.7;;;;;;;6.52;77.58496;937.9196;;;;
2023/01/14 11:45:33;;;;;;;3.2;1.9;;;;;;;6.61;79.0293;937.8715;;;;
2023/01/14 11:47:58;;;;;;;3.7;1.8;;;;;;;6.6;78.96875;937.7695;;;;
2023/01/14 11:50:27;;;;;;;5.7;2.1;;;;;;;6.72;78.87793;937.6547;;;;
2023/01/14 11:52:54;;;;;;;2.5;1.1;;;;;;;6.7;78.34375;937.6568;;;;
2023/01/14 11:55:19;;;;;;;3.7;2.1;;;;;;;6.86;77.61523;937.6021;;;;
2023/01/14 11:57:47;;;;;;;4.1;2.6;;;;;;;7.04;78.14453;937.4921;;;;
2023/01/14 12:00:13;;;;;;;3.3;2.4;;;;;;;7.21;76.35156;937.3742;;;;
2023/01/14 12:02:41;;;;;;;2.8;2.2;;;;;;;7.28;76.28516;937.3787;;;;
2023/01/14 12:05:07;;;;;;;4;2.8;;;;;;;7.02;76.79395;937.3557;;;;
2023/01/14 12:07:32;;;;;;;1.7;1.2;;;;;;;6.98;72.83496;937.444;;;;
2023/01/14 12:09:57;;;;;;;2.5;2.2;;;;;;;7.21;73.46094;937.3983;;;;
2023/01/14 12:12:22;;;;;;;1.5;1.4;;;;;;;7.44;68.51367;937.3473;;;;
2023/01/14 12:17:13;;;;;;;3.7;1.4;;;;;;;8.14;66.30957;937.1705;;;;
2023/01/14 12:19:40;;;;;;;4.2;2.8;;;;;;;8.48;66.2832;937.0992;;;;
2023/01/14 12:22:05;;;;;;;6.9;2.9;;;;;;;8.72;67.64941;937.0759;;;;
2023/01/14 12:24:31;;;;;;;5;2.2;;;;;;;8.81;63.79688;937.0466;;;;
2023/01/14 12:26:59;;;;;;;7.5;1.9;;;;;;;8.97;64.67383;936.9177;;;;
2023/01/14 12:29:25;;;;;;;4.3;1.8;;;;;;;9.14;61.80957;936.9011;;;;
2023/01/14 12:31:54;;;;;;;3.7;1.8;;;;;;;9.21;62.87793;936.8189;;;;
2023/01/14 12:34:20;;;;;;;3.3;1.3;;;;;;;9.06;61.58008;936.7737;;;;
2023/01/14 12:36:46;;;;;;;2.9;1.5;;;;;;;9;61.59473;936.7584;;;;
2023/01/14 12:46:31;;;;;;;2.6;1.8;;;;;;;8.51;66.9707;936.6981;;;;
2023/01/14 12:49:00;;;;;;;5.1;2.5;;;;;;;8.7;66.25977;936.7042;;;;
2023/01/14 12:51:25;;;;;;;8.7;2.2;;;;;;;8.93;66.72656;936.6423;;;;
2023/01/14 12:53:52;;;;;;;3;1.7;;;;;;;9;64.68945;936.5472;;;;
2023/01/14 12:56:17;;;;;;;4.6;2.1;;;;;;;9.21;64.80078;936.4797;;;;
2023/01/14 12:58:42;;;;;;;9.5;2.4;;;;;;;9.34;63.66992;936.4763;;;;
2023/01/14 13:01:09;;;;;;;2.5;1.9;;;;;;;9.31;57.79199;936.4409;;;;
2023/01/14 13:03:34;;;;;;;6.8;2.1;;;;;;;9.43;61.78223;936.4863;;;;
2023/01/14 13:06:00;;;;;;;9.7;3.8;;;;;;;9.65;62.0625;936.4221;;;;
2023/01/14 13:08:26;;;;;;;6;3.4;;;;;;;9.55;63.37109;936.4947;;;;
2023/01/14 13:10:53;;;;;;;5.3;3.1;;;;;;;9.26;64.37598;936.3889;;;;
2023/01/14 13:13:18;;;;;;;11.5;4.3;;;;;;;9.28;65.43848;936.3406;;;;
2023/01/14 13:15:43;;;;;;;8.1;2.7;;;;;;;9.2;65.50488;936.3267;;;;
2023/01/14 13:18:12;;;;;;;5.7;2.9;;;;;;;9.26;64.37598;936.373;;;;
2023/01/14 13:20:38;;;;;;;3.5;2.2;;;;;;;9.28;66.31445;936.3342;;;;
2023/01/14 13:23:08;;;;;;;5.4;2.3;;;;;;;9.41;64.29688;936.2561;;;;
2023/01/14 13:25:33;;;;;;;4.4;2.2;;;;;;;9.49;63.74902;936.2048;;;;
2023/01/14 13:27:58;;;;;;;6.3;3.7;;;;;;;9.69;63.59766;936.1069;;;;
2023/01/14 13:30:23;;;;;;;3.8;1.8;;;;;;;9.48;64.97754;936.087;;;;
2023/01/14 13:32:51;;;;;;;3;1.6;;;;;;;9.65;63.72754;936.1017;;;;
2023/01/14 13:35:16;;;;;;;4.5;2.3;;;;;;;9.98;63.57031;936.0308;;;;
2023/01/14 13:37:42;;;;;;;5;1.9;;;;;;;9.98;61.47266;935.9919;;;;
2023/01/14 13:40:07;;;;;;;5.6;2.5;;;;;;;10;62.2627;935.9594;;;;
2023/01/14 13:42:38;;;;;;;5.5;2.4;;;;;;;10.11;61.73145;935.9033;;;;
2023/01/14 13:45:00;;;;;;;5.9;3.2;;;;;;;10.09;61.75098;935.9166;;;;
2023/01/14 13:47:26;;;;;;;7.7;3;;;;;;;10.19;61.60547;935.8862;;;;
2023/01/14 13:49:50;;;;;;;4.8;2.7;;;;;;;10.06;61.51953;935.7924;;;;
2023/01/14 13:52:16;;;;;;;4.2;3;;;;;;;9.99;61.9082;935.7732;;;;
2023/01/14 13:54:40;;;;;;;4.9;2.8;;;;;;;9.94;62.74414;935.7489;;;;
2023/01/14 13:57:06;;;;;;;4.4;2.9;;;;;;;9.79;62.68848;935.7141;;;;
2023/01/14 13:59:31;;;;;;;6.1;3.2;;;;;;;9.58;62.53223;935.7239;;;;
2023/01/14 14:01:59;;;;;;;3.8;2.5;;;;;;;9.23;63.34766;935.7219;;;;
2023/01/14 14:04:23;;;;;;;3.9;2.4;;;;;;;9.07;64.16602;935.7073;;;;
2023/01/14 14:06:48;;;;;;;5.7;3.2;;;;;;;9.17;64.4082;935.6933;;;;
2023/01/14 14:09:13;;;;;;;5.9;3;;;;;;;9.34;65.47949;935.6071;;;;
2023/01/14 14:11:39;;;;;;;7.8;3.7;;;;;;;9.33;64.55762;935.6276;;;;
2023/01/14 14:14:08;;;;;;;7.7;3.9;;;;;;;9.38;64.75781;935.5923;;;;
2023/01/14 14:16:33;;;;;;;6.9;3.7;;;;;;;9.18;64.70508;935.4885;;;;
2023/01/14 14:19:01;;;;;;;4.8;3.4;;;;;;;9.13;63.42383;935.5109;;;;
2023/01/14 14:21:26;;;;;;;6.5;3.7;;;;;;;8.82;63.75391;935.3692;;;;
2023/01/14 14:23:52;;;;;;;11.3;4.3;;;;;;;8.8;65.44434;935.425;;;;
2023/01/14 14:26:16;;;;;;;7.5;4.5;;;;;;;8.69;65.24609;935.4055;;;;
2023/01/14 14:28:44;;;;;;;6.2;3.9;;;;;;;8.47;64.7002;935.3526;;;;
2023/01/14 14:31:13;;;;;;;11.4;6.2;;;;;;;8.3;65.69727;935.2958;;;;
2023/01/14 14:33:34;;;;;;;11;6;;;;;;;8.29;66.82129;935.337;;;;
2023/01/14 14:35:59;;;;;;;7.5;5.2;;;;;;;8.46;67.44922;935.3254;;;;
2023/01/14 14:38:27;;;;;;;13.2;8.9;;;;;;;8.66;66.37793;935.3226;;;;
2023/01/14 14:40:52;;;;;;;11.3;6.4;;;;;;;8.51;66.76465;935.3292;;;;
2023/01/14 14:43:17;;;;;;;10.9;6.8;;;;;;;8.69;67.04395;935.3524;;;;
2023/01/14 14:45:49;;;;;;;11.4;6.6;;;;;;;8.83;66.78027;935.3694;;;;
2023/01/14 14:48:10;;;;;;;10.7;6.2;;;;;;;8.5;66.97754;935.2355;;;;
2023/01/14 14:50:36;;;;;;;7.9;4.9;;;;;;;8.21;66.63867;935.1727;;;;
2023/01/14 14:53:00;;;;;;;9;4.7;;;;;;;8.29;68.57031;934.919;;;;
2023/01/14 14:55:25;;;;;;;16.1;6.2;;;;;;;8.1;69.6875;935.032;;;;
2023/01/14 14:57:50;;;;;;;14.8;6.6;;;;;;;7.89;70.77539;935.1256;;;;
2023/01/14 15:00:16;;;;;;;11.8;6.2;;;;;;;7.88;70.87793;935.1414;;;;
2023/01/14 15:02:41;;;;;;;8.8;6.6;;;;;;;7.61;71.38672;935.1275;;;;
2023/01/14 15:05:06;;;;;;;9;5.3;;;;;;;7.47;72.08984;935.2067;;;;
2023/01/14 15:07:34;;;;;;;11.2;5.3;;;;;;;7.51;72.59473;935.1922;;;;
2023/01/14 15:10:00;;;;;;;15.5;8.5;;;;;;;7.46;73.79883;935.1225;;;;
2023/01/14 15:12:25;;;;;;;9.6;5.8;;;;;;;7.44;74.39648;934.9622;;;;
2023/01/14 15:14:56;;;;;;;8.9;5.9;;;;;;;7.44;74.82715;934.788;;;;
2023/01/14 15:17:22;;;;;;;15.6;7.3;;;;;;;7.42;74.91504;934.8359;;;;
2023/01/14 15:19:49;;;;;;;15.2;8.6;;;;;;;7.19;75.16992;934.8175;;;;
2023/01/14 15:22:13;;;;;;;13.4;7;;;;;;;7.26;75.63477;934.7634;;;;
2023/01/14 15:24:41;;;;;;;68.5;51.6;;;;;;;7.26;76.22559;934.6788;;;;
2023/01/14 15:27:08;;;;;;;12.6;7.8;;;;;;;7.15;76.62402;934.7329;;;;
2023/01/14 15:29:37;;;;;;;13;8;;;;;;;7.23;77.0918;934.7534;;;;
2023/01/14 15:32:02;;;;;;;6.6;4.7;;;;;;;7.24;78.20508;934.7291;;;;